sensor_id;sensor_type;location;lat;lon;timestamp;P1;durP1;ratioP1;P2;durP2;ratioP2
75616;SDS011;64200;55.426;37.758;2023-04-30T00:03:38;18.17;;;7.88;;
75616;SDS011;64200;55.426;37.758;2023-04-30T00:08:38;12.90;;;7.67;;
75616;SDS011;64200;55.426;37.758;2023-04-30T00:13:39;13.63;;;8.52;;
75616;SDS011;64200;55.426;37.758;2023-04-30T00:18:42;13.70;;;8.35;;
75616;SDS011;64200;55.426;37.758;2023-04-30T00:23:42;19.88;;;8.02;;
75616;SDS011;64200;55.426;37.758;2023-04-30T00:28:43;14.10;;;8.07;;
75616;SDS011;64200;55.426;37.758;2023-04-30T00:33:43;16.30;;;8.07;;
75616;SDS011;64200;55.426;37.758;2023-04-30T00:38:44;11.80;;;8.20;;
75616;SDS011;64200;55.426;37.758;2023-04-30T00:43:44;18.60;;;8.73;;
75616;SDS011;64200;55.426;37.758;2023-04-30T00:48:46;12.25;;;7.78;;
75616;SDS011;64200;55.426;37.758;2023-04-30T00:53:48;10.10;;;6.90;;
75616;SDS011;64200;55.426;37.758;2023-04-30T00:58:48;11.60;;;7.25;;
75616;SDS011;64200;55.426;37.758;2023-04-30T01:03:53;12.05;;;7.15;;
75616;SDS011;64200;55.426;37.758;2023-04-30T01:08:54;14.00;;;7.60;;
75616;SDS011;64200;55.426;37.758;2023-04-30T01:24:42;11.90;;;7.38;;
75616;SDS011;64200;55.426;37.758;2023-04-30T01:29:59;10.70;;;6.95;;
75616;SDS011;64200;55.426;37.758;2023-04-30T01:35:02;10.25;;;6.30;;
75616;SDS011;64200;55.426;37.758;2023-04-30T01:40:08;9.55;;;6.07;;
75616;SDS011;64200;55.426;37.758;2023-04-30T01:51:01;16.77;;;7.68;;
75616;SDS011;64200;55.426;37.758;2023-04-30T01:56:35;13.35;;;6.93;;
75616;SDS011;64200;55.426;37.758;2023-04-30T02:01:39;13.05;;;7.18;;
75616;SDS011;64200;55.426;37.758;2023-04-30T02:06:39;12.00;;;7.68;;
75616;SDS011;64200;55.426;37.758;2023-04-30T02:11:40;11.85;;;7.68;;
75616;SDS011;64200;55.426;37.758;2023-04-30T02:16:41;11.93;;;7.57;;
75616;SDS011;64200;55.426;37.758;2023-04-30T02:21:41;14.80;;;7.32;;
75616;SDS011;64200;55.426;37.758;2023-04-30T02:26:42;15.77;;;9.27;;
75616;SDS011;64200;55.426;37.758;2023-04-30T02:31:42;14.53;;;7.57;;
75616;SDS011;64200;55.426;37.758;2023-04-30T02:36:43;11.43;;;7.65;;
75616;SDS011;64200;55.426;37.758;2023-04-30T02:41:43;11.83;;;6.77;;
75616;SDS011;64200;55.426;37.758;2023-04-30T02:46:44;13.68;;;7.68;;
75616;SDS011;64200;55.426;37.758;2023-04-30T02:51:44;11.43;;;7.55;;
75616;SDS011;64200;55.426;37.758;2023-04-30T02:56:45;8.70;;;6.97;;
75616;SDS011;64200;55.426;37.758;2023-04-30T03:01:46;8.68;;;5.93;;
75616;SDS011;64200;55.426;37.758;2023-04-30T03:06:46;10.23;;;5.93;;
75616;SDS011;64200;55.426;37.758;2023-04-30T03:11:47;11.10;;;6.73;;
75616;SDS011;64200;55.426;37.758;2023-04-30T03:16:47;10.83;;;6.17;;
75616;SDS011;64200;55.426;37.758;2023-04-30T03:21:48;9.33;;;5.73;;
75616;SDS011;64200;55.426;37.758;2023-04-30T03:26:48;12.17;;;6.63;;
75616;SDS011;64200;55.426;37.758;2023-04-30T03:31:49;10.18;;;6.20;;
75616;SDS011;64200;55.426;37.758;2023-04-30T03:36:50;9.75;;;6.53;;
75616;SDS011;64200;55.426;37.758;2023-04-30T03:41:50;12.15;;;6.90;;
75616;SDS011;64200;55.426;37.758;2023-04-30T03:46:51;9.30;;;6.27;;
75616;SDS011;64200;55.426;37.758;2023-04-30T03:51:51;11.60;;;7.27;;
75616;SDS011;64200;55.426;37.758;2023-04-30T03:56:52;16.67;;;7.67;;
75616;SDS011;64200;55.426;37.758;2023-04-30T04:01:52;11.85;;;6.38;;
75616;SDS011;64200;55.426;37.758;2023-04-30T04:06:53;10.43;;;7.20;;
75616;SDS011;64200;55.426;37.758;2023-04-30T04:11:53;10.98;;;6.63;;
75616;SDS011;64200;55.426;37.758;2023-04-30T04:16:54;9.48;;;6.57;;
75616;SDS011;64200;55.426;37.758;2023-04-30T04:21:56;10.10;;;6.53;;
75616;SDS011;64200;55.426;37.758;2023-04-30T04:26:57;7.83;;;6.03;;
75616;SDS011;64200;55.426;37.758;2023-04-30T04:31:58;10.40;;;5.57;;
75616;SDS011;64200;55.426;37.758;2023-04-30T04:37:03;6.63;;;5.10;;
75616;SDS011;64200;55.426;37.758;2023-04-30T04:42:04;8.85;;;5.65;;
75616;SDS011;64200;55.426;37.758;2023-04-30T04:47:04;9.03;;;5.97;;
75616;SDS011;64200;55.426;37.758;2023-04-30T04:52:05;11.20;;;7.05;;
75616;SDS011;64200;55.426;37.758;2023-04-30T04:57:06;10.10;;;6.57;;
75616;SDS011;64200;55.426;37.758;2023-04-30T05:02:06;9.55;;;6.20;;
75616;SDS011;64200;55.426;37.758;2023-04-30T05:07:07;13.38;;;5.97;;
75616;SDS011;64200;55.426;37.758;2023-04-30T05:12:07;7.07;;;5.38;;
75616;SDS011;64200;55.426;37.758;2023-04-30T05:17:08;7.33;;;5.90;;
75616;SDS011;64200;55.426;37.758;2023-04-30T05:22:08;8.02;;;5.28;;
75616;SDS011;64200;55.426;37.758;2023-04-30T05:27:09;6.97;;;6.03;;
75616;SDS011;64200;55.426;37.758;2023-04-30T05:32:09;7.50;;;5.17;;
75616;SDS011;64200;55.426;37.758;2023-04-30T05:37:10;8.25;;;5.65;;
75616;SDS011;64200;55.426;37.758;2023-04-30T05:42:12;5.82;;;4.43;;
75616;SDS011;64200;55.426;37.758;2023-04-30T05:47:12;6.38;;;4.10;;
75616;SDS011;64200;55.426;37.758;2023-04-30T05:52:13;6.15;;;3.78;;
75616;SDS011;64200;55.426;37.758;2023-04-30T05:57:14;4.25;;;2.78;;
75616;SDS011;64200;55.426;37.758;2023-04-30T06:02:14;3.10;;;2.23;;
75616;SDS011;64200;55.426;37.758;2023-04-30T06:07:15;4.53;;;2.35;;
75616;SDS011;64200;55.426;37.758;2023-04-30T06:12:15;4.40;;;2.33;;
75616;SDS011;64200;55.426;37.758;2023-04-30T06:17:16;4.25;;;2.47;;
75616;SDS011;64200;55.426;37.758;2023-04-30T06:22:17;6.33;;;2.77;;
75616;SDS011;64200;55.426;37.758;2023-04-30T06:27:17;5.10;;;2.85;;
75616;SDS011;64200;55.426;37.758;2023-04-30T06:32:18;3.87;;;1.90;;
75616;SDS011;64200;55.426;37.758;2023-04-30T06:37:18;5.53;;;2.05;;
75616;SDS011;64200;55.426;37.758;2023-04-30T06:42:19;2.03;;;1.50;;
75616;SDS011;64200;55.426;37.758;2023-04-30T06:47:19;2.00;;;1.27;;
75616;SDS011;64200;55.426;37.758;2023-04-30T06:52:20;1.03;;;0.77;;
75616;SDS011;64200;55.426;37.758;2023-04-30T06:57:20;4.87;;;0.87;;
75616;SDS011;64200;55.426;37.758;2023-04-30T07:02:21;2.75;;;0.70;;
75616;SDS011;64200;55.426;37.758;2023-04-30T07:07:22;1.38;;;0.80;;
75616;SDS011;64200;55.426;37.758;2023-04-30T07:12:22;1.85;;;0.75;;
75616;SDS011;64200;55.426;37.758;2023-04-30T07:17:23;1.23;;;0.98;;
75616;SDS011;64200;55.426;37.758;2023-04-30T07:22:24;1.25;;;0.80;;
75616;SDS011;64200;55.426;37.758;2023-04-30T07:27:25;2.35;;;1.30;;
75616;SDS011;64200;55.426;37.758;2023-04-30T07:32:26;1.23;;;1.10;;
75616;SDS011;64200;55.426;37.758;2023-04-30T07:37:26;1.05;;;0.77;;
75616;SDS011;64200;55.426;37.758;2023-04-30T07:42:27;1.80;;;1.00;;
75616;SDS011;64200;55.426;37.758;2023-04-30T07:47:27;2.80;;;1.15;;
75616;SDS011;64200;55.426;37.758;2023-04-30T07:52:28;2.95;;;1.02;;
75616;SDS011;64200;55.426;37.758;2023-04-30T07:57:29;4.10;;;0.87;;
75616;SDS011;64200;55.426;37.758;2023-04-30T08:02:29;2.13;;;0.98;;
75616;SDS011;64200;55.426;37.758;2023-04-30T08:07:30;2.17;;;0.88;;
75616;SDS011;64200;55.426;37.758;2023-04-30T08:12:30;2.60;;;1.00;;
75616;SDS011;64200;55.426;37.758;2023-04-30T08:17:31;1.40;;;0.98;;
75616;SDS011;64200;55.426;37.758;2023-04-30T08:22:33;2.75;;;1.20;;
75616;SDS011;64200;55.426;37.758;2023-04-30T08:27:36;2.27;;;1.27;;
75616;SDS011;64200;55.426;37.758;2023-04-30T08:32:39;1.73;;;1.10;;
75616;SDS011;64200;55.426;37.758;2023-04-30T08:37:40;4.47;;;1.63;;
75616;SDS011;64200;55.426;37.758;2023-04-30T08:42:43;3.43;;;0.90;;
75616;SDS011;64200;55.426;37.758;2023-04-30T08:52:55;1.35;;;1.02;;
75616;SDS011;64200;55.426;37.758;2023-04-30T08:57:59;4.35;;;1.10;;
75616;SDS011;64200;55.426;37.758;2023-04-30T09:03:00;1.73;;;1.20;;
75616;SDS011;64200;55.426;37.758;2023-04-30T09:08:01;1.60;;;0.98;;
75616;SDS011;64200;55.426;37.758;2023-04-30T09:18:12;2.53;;;1.08;;
75616;SDS011;64200;55.426;37.758;2023-04-30T09:23:16;3.30;;;1.58;;
75616;SDS011;64200;55.426;37.758;2023-04-30T09:28:17;1.57;;;1.10;;
75616;SDS011;64200;55.426;37.758;2023-04-30T09:33:22;4.38;;;1.20;;
75616;SDS011;64200;55.426;37.758;2023-04-30T09:38:27;2.88;;;1.35;;
75616;SDS011;64200;55.426;37.758;2023-04-30T09:43:29;3.45;;;1.02;;
75616;SDS011;64200;55.426;37.758;2023-04-30T09:48:30;3.28;;;1.65;;
75616;SDS011;64200;55.426;37.758;2023-04-30T09:53:32;3.92;;;1.58;;
75616;SDS011;64200;55.426;37.758;2023-04-30T09:58:37;4.07;;;1.92;;
75616;SDS011;64200;55.426;37.758;2023-04-30T10:03:43;1.42;;;1.23;;
75616;SDS011;64200;55.426;37.758;2023-04-30T10:08:46;3.70;;;1.45;;
75616;SDS011;64200;55.426;37.758;2023-04-30T10:13:51;3.45;;;1.45;;
75616;SDS011;64200;55.426;37.758;2023-04-30T10:18:55;3.13;;;1.60;;
75616;SDS011;64200;55.426;37.758;2023-04-30T10:23:59;1.98;;;1.50;;
75616;SDS011;64200;55.426;37.758;2023-04-30T10:29:00;2.65;;;1.40;;
75616;SDS011;64200;55.426;37.758;2023-04-30T10:39:03;3.10;;;1.60;;
75616;SDS011;64200;55.426;37.758;2023-04-30T10:44:04;3.83;;;1.50;;
75616;SDS011;64200;55.426;37.758;2023-04-30T10:49:07;2.20;;;1.33;;
75616;SDS011;64200;55.426;37.758;2023-04-30T10:54:07;3.10;;;1.85;;
75616;SDS011;64200;55.426;37.758;2023-04-30T10:59:08;2.28;;;1.55;;
75616;SDS011;64200;55.426;37.758;2023-04-30T11:04:10;1.90;;;1.27;;
75616;SDS011;64200;55.426;37.758;2023-04-30T11:09:10;4.32;;;1.65;;
75616;SDS011;64200;55.426;37.758;2023-04-30T11:14:11;4.07;;;1.70;;
75616;SDS011;64200;55.426;37.758;2023-04-30T11:19:12;3.15;;;1.60;;
75616;SDS011;64200;55.426;37.758;2023-04-30T11:24:14;3.17;;;1.48;;
75616;SDS011;64200;55.426;37.758;2023-04-30T11:29:14;5.07;;;1.70;;
75616;SDS011;64200;55.426;37.758;2023-04-30T11:34:16;3.95;;;1.35;;
75616;SDS011;64200;55.426;37.758;2023-04-30T11:39:17;4.07;;;1.33;;
75616;SDS011;64200;55.426;37.758;2023-04-30T11:44:22;2.00;;;1.05;;
75616;SDS011;64200;55.426;37.758;2023-04-30T11:49:25;2.65;;;1.15;;
75616;SDS011;64200;55.426;37.758;2023-04-30T11:54:26;3.85;;;1.50;;
75616;SDS011;64200;55.426;37.758;2023-04-30T11:59:31;2.88;;;1.52;;
75616;SDS011;64200;55.426;37.758;2023-04-30T12:04:42;2.03;;;1.63;;
75616;SDS011;64200;55.426;37.758;2023-04-30T12:09:52;2.17;;;1.13;;
75616;SDS011;64200;55.426;37.758;2023-04-30T12:14:56;2.35;;;1.10;;
75616;SDS011;64200;55.426;37.758;2023-04-30T12:19:56;4.63;;;1.13;;
75616;SDS011;64200;55.426;37.758;2023-04-30T12:24:58;4.15;;;1.35;;
75616;SDS011;64200;55.426;37.758;2023-04-30T12:30:04;3.72;;;1.40;;
75616;SDS011;64200;55.426;37.758;2023-04-30T12:35:16;4.53;;;2.08;;
75616;SDS011;64200;55.426;37.758;2023-04-30T12:40:20;2.67;;;1.90;;
75616;SDS011;64200;55.426;37.758;2023-04-30T12:50:54;2.65;;;1.42;;
75616;SDS011;64200;55.426;37.758;2023-04-30T13:01:19;5.70;;;1.88;;
75616;SDS011;64200;55.426;37.758;2023-04-30T13:06:21;4.00;;;1.70;;
75616;SDS011;64200;55.426;37.758;2023-04-30T13:11:22;5.47;;;3.10;;
75616;SDS011;64200;55.426;37.758;2023-04-30T13:16:23;6.15;;;2.80;;
75616;SDS011;64200;55.426;37.758;2023-04-30T13:21:24;2.58;;;1.90;;
75616;SDS011;64200;55.426;37.758;2023-04-30T13:26:25;7.10;;;2.25;;
75616;SDS011;64200;55.426;37.758;2023-04-30T13:31:26;4.70;;;2.35;;
75616;SDS011;64200;55.426;37.758;2023-04-30T13:36:27;3.33;;;2.07;;
75616;SDS011;64200;55.426;37.758;2023-04-30T13:41:28;6.95;;;3.13;;
75616;SDS011;64200;55.426;37.758;2023-04-30T13:46:28;5.87;;;2.87;;
75616;SDS011;64200;55.426;37.758;2023-04-30T13:51:29;4.05;;;2.78;;
75616;SDS011;64200;55.426;37.758;2023-04-30T13:56:30;5.40;;;3.00;;
75616;SDS011;64200;55.426;37.758;2023-04-30T14:01:31;5.90;;;2.45;;
75616;SDS011;64200;55.426;37.758;2023-04-30T14:06:32;5.32;;;2.97;;
75616;SDS011;64200;55.426;37.758;2023-04-30T14:11:33;6.95;;;4.13;;
75616;SDS011;64200;55.426;37.758;2023-04-30T14:16:33;8.93;;;3.70;;
75616;SDS011;64200;55.426;37.758;2023-04-30T14:21:34;8.07;;;3.65;;
75616;SDS011;64200;55.426;37.758;2023-04-30T14:26:35;8.52;;;3.70;;
75616;SDS011;64200;55.426;37.758;2023-04-30T14:31:35;8.50;;;3.75;;
75616;SDS011;64200;55.426;37.758;2023-04-30T14:36:36;7.38;;;3.90;;
75616;SDS011;64200;55.426;37.758;2023-04-30T14:41:37;5.93;;;3.25;;
75616;SDS011;64200;55.426;37.758;2023-04-30T14:46:38;5.45;;;3.42;;
75616;SDS011;64200;55.426;37.758;2023-04-30T14:51:38;7.30;;;3.47;;
75616;SDS011;64200;55.426;37.758;2023-04-30T14:56:39;4.40;;;2.90;;
75616;SDS011;64200;55.426;37.758;2023-04-30T15:01:40;5.43;;;3.15;;
75616;SDS011;64200;55.426;37.758;2023-04-30T15:06:41;4.60;;;2.83;;
75616;SDS011;64200;55.426;37.758;2023-04-30T15:11:42;3.83;;;2.50;;
75616;SDS011;64200;55.426;37.758;2023-04-30T15:16:42;5.68;;;2.13;;
75616;SDS011;64200;55.426;37.758;2023-04-30T15:21:43;9.68;;;2.78;;
75616;SDS011;64200;55.426;37.758;2023-04-30T15:26:43;3.13;;;2.43;;
75616;SDS011;64200;55.426;37.758;2023-04-30T15:31:44;3.47;;;2.25;;
75616;SDS011;64200;55.426;37.758;2023-04-30T15:36:44;4.63;;;2.60;;
75616;SDS011;64200;55.426;37.758;2023-04-30T15:41:45;6.43;;;3.17;;
75616;SDS011;64200;55.426;37.758;2023-04-30T15:46:46;6.28;;;3.88;;
75616;SDS011;64200;55.426;37.758;2023-04-30T15:51:47;6.18;;;3.25;;
75616;SDS011;64200;55.426;37.758;2023-04-30T15:56:47;8.68;;;5.05;;
75616;SDS011;64200;55.426;37.758;2023-04-30T16:01:48;7.97;;;4.30;;
75616;SDS011;64200;55.426;37.758;2023-04-30T16:06:49;5.63;;;3.53;;
75616;SDS011;64200;55.426;37.758;2023-04-30T16:11:49;7.57;;;4.07;;
75616;SDS011;64200;55.426;37.758;2023-04-30T16:16:50;8.02;;;4.15;;
75616;SDS011;64200;55.426;37.758;2023-04-30T16:21:51;6.88;;;3.30;;
75616;SDS011;64200;55.426;37.758;2023-04-30T16:26:52;6.68;;;3.38;;
75616;SDS011;64200;55.426;37.758;2023-04-30T16:31:53;4.28;;;2.60;;
75616;SDS011;64200;55.426;37.758;2023-04-30T16:36:53;6.82;;;2.80;;
75616;SDS011;64200;55.426;37.758;2023-04-30T16:41:54;4.40;;;2.80;;
75616;SDS011;64200;55.426;37.758;2023-04-30T16:46:55;4.82;;;2.95;;
75616;SDS011;64200;55.426;37.758;2023-04-30T16:51:58;6.75;;;3.97;;
75616;SDS011;64200;55.426;37.758;2023-04-30T16:56:59;4.35;;;3.17;;
75616;SDS011;64200;55.426;37.758;2023-04-30T17:01:59;7.13;;;3.35;;
75616;SDS011;64200;55.426;37.758;2023-04-30T17:07:01;6.90;;;4.82;;
75616;SDS011;64200;55.426;37.758;2023-04-30T17:12:02;4.95;;;3.42;;
75616;SDS011;64200;55.426;37.758;2023-04-30T17:17:04;5.30;;;3.38;;
75616;SDS011;64200;55.426;37.758;2023-04-30T17:22:05;5.63;;;2.42;;
75616;SDS011;64200;55.426;37.758;2023-04-30T17:27:06;6.03;;;2.17;;
75616;SDS011;64200;55.426;37.758;2023-04-30T17:32:07;3.45;;;2.08;;
75616;SDS011;64200;55.426;37.758;2023-04-30T17:37:10;3.20;;;2.30;;
75616;SDS011;64200;55.426;37.758;2023-04-30T17:42:11;4.00;;;2.53;;
75616;SDS011;64200;55.426;37.758;2023-04-30T17:47:12;5.65;;;2.60;;
75616;SDS011;64200;55.426;37.758;2023-04-30T17:52:13;6.88;;;2.85;;
75616;SDS011;64200;55.426;37.758;2023-04-30T17:57:13;4.37;;;3.37;;
75616;SDS011;64200;55.426;37.758;2023-04-30T18:02:14;3.20;;;2.17;;
75616;SDS011;64200;55.426;37.758;2023-04-30T18:07:14;4.15;;;3.28;;
75616;SDS011;64200;55.426;37.758;2023-04-30T18:12:15;4.47;;;2.63;;
75616;SDS011;64200;55.426;37.758;2023-04-30T18:17:16;4.13;;;2.90;;
75616;SDS011;64200;55.426;37.758;2023-04-30T18:22:17;6.20;;;3.00;;
75616;SDS011;64200;55.426;37.758;2023-04-30T18:27:18;3.97;;;2.70;;
75616;SDS011;64200;55.426;37.758;2023-04-30T18:32:19;4.70;;;2.83;;
75616;SDS011;64200;55.426;37.758;2023-04-30T18:37:20;5.57;;;3.20;;
75616;SDS011;64200;55.426;37.758;2023-04-30T18:42:22;4.53;;;3.05;;
75616;SDS011;64200;55.426;37.758;2023-04-30T18:47:24;4.40;;;2.50;;
75616;SDS011;64200;55.426;37.758;2023-04-30T18:52:24;4.07;;;2.50;;
75616;SDS011;64200;55.426;37.758;2023-04-30T18:57:25;3.95;;;2.72;;
75616;SDS011;64200;55.426;37.758;2023-04-30T19:02:26;4.88;;;2.67;;
75616;SDS011;64200;55.426;37.758;2023-04-30T19:07:27;5.63;;;2.65;;
75616;SDS011;64200;55.426;37.758;2023-04-30T19:12:27;6.50;;;3.40;;
75616;SDS011;64200;55.426;37.758;2023-04-30T19:17:28;4.22;;;3.30;;
75616;SDS011;64200;55.426;37.758;2023-04-30T19:22:28;4.82;;;3.80;;
75616;SDS011;64200;55.426;37.758;2023-04-30T19:27:29;5.60;;;3.65;;
75616;SDS011;64200;55.426;37.758;2023-04-30T19:32:30;8.20;;;4.82;;
75616;SDS011;64200;55.426;37.758;2023-04-30T19:37:30;8.37;;;4.43;;
75616;SDS011;64200;55.426;37.758;2023-04-30T19:42:31;4.97;;;3.50;;
75616;SDS011;64200;55.426;37.758;2023-04-30T19:47:31;4.57;;;3.58;;
75616;SDS011;64200;55.426;37.758;2023-04-30T19:52:32;3.90;;;3.13;;
75616;SDS011;64200;55.426;37.758;2023-04-30T19:57:33;6.22;;;3.65;;
75616;SDS011;64200;55.426;37.758;2023-04-30T20:02:34;4.85;;;3.65;;
75616;SDS011;64200;55.426;37.758;2023-04-30T20:07:35;7.57;;;4.82;;
75616;SDS011;64200;55.426;37.758;2023-04-30T20:12:36;11.40;;;4.57;;
75616;SDS011;64200;55.426;37.758;2023-04-30T20:17:36;5.70;;;3.92;;
75616;SDS011;64200;55.426;37.758;2023-04-30T20:22:37;4.75;;;3.50;;
75616;SDS011;64200;55.426;37.758;2023-04-30T20:27:38;5.70;;;3.83;;
75616;SDS011;64200;55.426;37.758;2023-04-30T20:32:39;5.80;;;4.15;;
75616;SDS011;64200;55.426;37.758;2023-04-30T20:37:40;6.80;;;4.32;;
75616;SDS011;64200;55.426;37.758;2023-04-30T20:42:40;5.22;;;3.53;;
75616;SDS011;64200;55.426;37.758;2023-04-30T20:47:41;4.97;;;3.60;;
75616;SDS011;64200;55.426;37.758;2023-04-30T20:52:42;7.97;;;4.40;;
75616;SDS011;64200;55.426;37.758;2023-04-30T20:57:42;6.55;;;3.80;;
75616;SDS011;64200;55.426;37.758;2023-04-30T21:02:43;5.90;;;3.60;;
75616;SDS011;64200;55.426;37.758;2023-04-30T21:07:44;5.00;;;3.78;;
75616;SDS011;64200;55.426;37.758;2023-04-30T21:12:44;5.18;;;4.28;;
75616;SDS011;64200;55.426;37.758;2023-04-30T21:17:45;4.10;;;3.17;;
75616;SDS011;64200;55.426;37.758;2023-04-30T21:22:45;5.95;;;2.97;;
75616;SDS011;64200;55.426;37.758;2023-04-30T21:27:46;5.55;;;3.97;;
75616;SDS011;64200;55.426;37.758;2023-04-30T21:32:47;4.65;;;3.00;;
75616;SDS011;64200;55.426;37.758;2023-04-30T21:37:48;3.93;;;3.27;;
75616;SDS011;64200;55.426;37.758;2023-04-30T21:42:49;5.88;;;3.20;;
75616;SDS011;64200;55.426;37.758;2023-04-30T21:47:50;8.65;;;3.85;;
75616;SDS011;64200;55.426;37.758;2023-04-30T21:52:50;5.70;;;3.50;;
75616;SDS011;64200;55.426;37.758;2023-04-30T21:57:51;4.82;;;2.83;;
75616;SDS011;64200;55.426;37.758;2023-04-30T22:02:52;3.22;;;2.60;;
75616;SDS011;64200;55.426;37.758;2023-04-30T22:07:53;4.30;;;3.30;;
75616;SDS011;64200;55.426;37.758;2023-04-30T22:12:54;5.30;;;3.40;;
75616;SDS011;64200;55.426;37.758;2023-04-30T22:17:54;5.45;;;3.67;;
75616;SDS011;64200;55.426;37.758;2023-04-30T22:22:55;4.95;;;3.90;;
75616;SDS011;64200;55.426;37.758;2023-04-30T22:27:56;5.07;;;4.10;;
75616;SDS011;64200;55.426;37.758;2023-04-30T22:32:56;5.57;;;3.87;;
75616;SDS011;64200;55.426;37.758;2023-04-30T22:37:58;7.55;;;4.10;;
75616;SDS011;64200;55.426;37.758;2023-04-30T22:42:59;6.63;;;3.90;;
75616;SDS011;64200;55.426;37.758;2023-04-30T22:48:00;7.10;;;4.65;;
75616;SDS011;64200;55.426;37.758;2023-04-30T22:53:02;5.75;;;5.07;;
75616;SDS011;64200;55.426;37.758;2023-04-30T22:58:03;7.90;;;5.15;;
75616;SDS011;64200;55.426;37.758;2023-04-30T23:03:03;5.97;;;4.57;;
75616;SDS011;64200;55.426;37.758;2023-04-30T23:08:04;7.17;;;4.37;;
75616;SDS011;64200;55.426;37.758;2023-04-30T23:13:04;7.57;;;5.90;;
75616;SDS011;64200;55.426;37.758;2023-04-30T23:18:05;6.35;;;5.25;;
75616;SDS011;64200;55.426;37.758;2023-04-30T23:23:05;13.23;;;7.07;;
75616;SDS011;64200;55.426;37.758;2023-04-30T23:28:06;10.73;;;7.70;;
75616;SDS011;64200;55.426;37.758;2023-04-30T23:33:06;8.27;;;6.45;;
75616;SDS011;64200;55.426;37.758;2023-04-30T23:38:07;14.52;;;6.82;;
75616;SDS011;64200;55.426;37.758;2023-04-30T23:43:08;8.27;;;5.93;;
75616;SDS011;64200;55.426;37.758;2023-04-30T23:48:09;10.38;;;6.95;;
75616;SDS011;64200;55.426;37.758;2023-04-30T23:53:10;10.03;;;6.60;;
75616;SDS011;64200;55.426;37.758;2023-04-30T23:58:10;9.70;;;7.27;;
